sensor_id;sensor_type;location;lat;lon;timestamp;pressure;altitude;pressure_sealevel;temperature;humidity
67052;BME280;53957;47.222;18.670;2022-12-07T00:01:26;100179.19;;;-0.13;100.00
67052;BME280;53957;47.222;18.670;2022-12-07T00:04:29;100180.34;;;-0.09;100.00
67052;BME280;53957;47.222;18.670;2022-12-07T00:07:31;100174.91;;;-0.07;100.00
67052;BME280;53957;47.222;18.670;2022-12-07T00:10:34;100172.31;;;-0.07;100.00
67052;BME280;53957;47.222;18.670;2022-12-07T00:13:37;100167.44;;;-0.04;100.00
67052;BME280;53957;47.222;18.670;2022-12-07T00:16:42;100161.16;;;-0.03;100.00
67052;BME280;53957;47.222;18.670;2022-12-07T00:19:45;100159.56;;;-0.04;100.00
67052;BME280;53957;47.222;18.670;2022-12-07T00:22:48;100155.72;;;-0.01;100.00
67052;BME280;53957;47.222;18.670;2022-12-07T00:25:51;100153.09;;;-0.01;100.00
67052;BME280;53957;47.222;18.670;2022-12-07T00:28:57;100160.13;;;-0.02;100.00
67052;BME280;53957;47.222;18.670;2022-12-07T00:32:01;100148.03;;;-0.03;100.00
67052;BME280;53957;47.222;18.670;2022-12-07T00:35:04;100152.34;;;-0.08;100.00
67052;BME280;53957;47.222;18.670;2022-12-07T00:38:07;100168.22;;;-0.03;100.00
67052;BME280;53957;47.222;18.670;2022-12-07T00:41:18;100161.75;;;-0.01;100.00
67052;BME280;53957;47.222;18.670;2022-12-07T00:44:22;100159.88;;;0.07;100.00
67052;BME280;53957;47.222;18.670;2022-12-07T00:47:25;100163.56;;;-0.01;100.00
67052;BME280;53957;47.222;18.670;2022-12-07T00:50:28;100154.31;;;-0.04;100.00
67052;BME280;53957;47.222;18.670;2022-12-07T00:53:34;100148.25;;;-0.04;100.00
67052;BME280;53957;47.222;18.670;2022-12-07T00:56:43;100144.69;;;-0.10;100.00
67052;BME280;53957;47.222;18.670;2022-12-07T00:59:46;100158.22;;;-0.13;100.00
67052;BME280;53957;47.222;18.670;2022-12-07T01:02:48;100162.66;;;-0.13;100.00
67052;BME280;53957;47.222;18.670;2022-12-07T01:05:55;100150.50;;;-0.08;100.00
67052;BME280;53957;47.222;18.670;2022-12-07T01:08:59;100145.91;;;-0.12;100.00
67052;BME280;53957;47.222;18.670;2022-12-07T01:12:02;100154.56;;;-0.12;100.00
67052;BME280;53957;47.222;18.670;2022-12-07T01:15:05;100137.06;;;-0.18;100.00
67052;BME280;53957;47.222;18.670;2022-12-07T01:18:08;100150.66;;;-0.03;100.00
67052;BME280;53957;47.222;18.670;2022-12-07T01:21:17;100150.03;;;-0.23;100.00
67052;BME280;53957;47.222;18.670;2022-12-07T01:24:20;100150.81;;;-0.23;100.00
67052;BME280;53957;47.222;18.670;2022-12-07T01:27:23;100151.56;;;-0.15;100.00
67052;BME280;53957;47.222;18.670;2022-12-07T01:30:26;100140.94;;;-0.21;100.00
67052;BME280;53957;47.222;18.670;2022-12-07T01:33:31;100147.19;;;-0.22;100.00
67052;BME280;53957;47.222;18.670;2022-12-07T01:36:35;100144.25;;;-0.07;100.00
67052;BME280;53957;47.222;18.670;2022-12-07T01:39:38;100139.44;;;-0.10;100.00
67052;BME280;53957;47.222;18.670;2022-12-07T01:42:41;100145.00;;;0.01;100.00
67052;BME280;53957;47.222;18.670;2022-12-07T01:45:44;100139.16;;;-0.02;100.00
67052;BME280;53957;47.222;18.670;2022-12-07T01:48:47;100136.50;;;0.05;100.00
67052;BME280;53957;47.222;18.670;2022-12-07T01:51:52;100134.66;;;0.06;100.00
67052;BME280;53957;47.222;18.670;2022-12-07T01:55:00;100137.28;;;0.06;100.00
67052;BME280;53957;47.222;18.670;2022-12-07T01:58:04;100129.28;;;0.01;100.00
67052;BME280;53957;47.222;18.670;2022-12-07T02:01:07;100129.00;;;0.09;100.00
67052;BME280;53957;47.222;18.670;2022-12-07T02:04:10;100125.19;;;0.05;100.00
67052;BME280;53957;47.222;18.670;2022-12-07T02:07:13;100118.00;;;0.00;100.00
67052;BME280;53957;47.222;18.670;2022-12-07T02:10:20;100128.25;;;0.02;100.00
67052;BME280;53957;47.222;18.670;2022-12-07T02:13:26;100129.00;;;0.09;100.00
67052;BME280;53957;47.222;18.670;2022-12-07T02:20:00;100119.31;;;0.09;100.00
67052;BME280;53957;47.222;18.670;2022-12-07T02:30:01;100110.81;;;0.14;100.00
67052;BME280;53957;47.222;18.670;2022-12-07T02:33:13;100113.56;;;0.19;100.00
67052;BME280;53957;47.222;18.670;2022-12-07T02:36:32;100109.34;;;0.18;100.00
67052;BME280;53957;47.222;18.670;2022-12-07T02:39:46;100114.38;;;0.20;100.00
67052;BME280;53957;47.222;18.670;2022-12-07T02:42:55;100115.75;;;0.22;100.00
67052;BME280;53957;47.222;18.670;2022-12-07T02:46:04;100122.59;;;0.23;100.00
67052;BME280;53957;47.222;18.670;2022-12-07T02:49:09;100126.13;;;0.36;100.00
67052;BME280;53957;47.222;18.670;2022-12-07T02:52:13;100123.50;;;0.36;100.00
67052;BME280;53957;47.222;18.670;2022-12-07T02:55:19;100129.03;;;0.27;100.00
67052;BME280;53957;47.222;18.670;2022-12-07T02:58:35;100125.22;;;0.23;100.00
67052;BME280;53957;47.222;18.670;2022-12-07T03:11:45;100110.56;;;0.15;100.00
67052;BME280;53957;47.222;18.670;2022-12-07T03:14:57;100097.94;;;0.06;100.00
67052;BME280;53957;47.222;18.670;2022-12-07T03:18:03;100089.22;;;0.12;100.00
67052;BME280;53957;47.222;18.670;2022-12-07T03:21:13;100093.56;;;0.25;100.00
67052;BME280;53957;47.222;18.670;2022-12-07T03:24:19;100092.38;;;0.21;100.00
67052;BME280;53957;47.222;18.670;2022-12-07T03:27:34;100096.06;;;0.13;100.00
67052;BME280;53957;47.222;18.670;2022-12-07T03:30:49;100102.94;;;0.14;100.00
67052;BME280;53957;47.222;18.670;2022-12-07T03:34:05;100111.06;;;0.06;100.00
67052;BME280;53957;47.222;18.670;2022-12-07T03:37:27;100113.69;;;0.06;100.00
67052;BME280;53957;47.222;18.670;2022-12-07T03:40:37;100114.97;;;0.22;100.00
67052;BME280;53957;47.222;18.670;2022-12-07T03:43:42;100107.12;;;-0.04;100.00
67052;BME280;53957;47.222;18.670;2022-12-07T03:50:36;100106.19;;;0.09;100.00
67052;BME280;53957;47.222;18.670;2022-12-07T03:53:49;100111.22;;;0.11;100.00
67052;BME280;53957;47.222;18.670;2022-12-07T03:56:54;100107.22;;;0.08;100.00
67052;BME280;53957;47.222;18.670;2022-12-07T03:59:58;100104.91;;;0.19;100.00
67052;BME280;53957;47.222;18.670;2022-12-07T04:03:13;100106.50;;;0.20;100.00
67052;BME280;53957;47.222;18.670;2022-12-07T04:06:16;100110.94;;;0.19;100.00
67052;BME280;53957;47.222;18.670;2022-12-07T04:09:19;100112.59;;;0.39;100.00
67052;BME280;53957;47.222;18.670;2022-12-07T04:12:23;100106.00;;;0.29;100.00
67052;BME280;53957;47.222;18.670;2022-12-07T04:15:26;100099.16;;;0.28;100.00
67052;BME280;53957;47.222;18.670;2022-12-07T04:18:29;100107.47;;;0.25;100.00
67052;BME280;53957;47.222;18.670;2022-12-07T04:21:32;100102.44;;;0.24;100.00
67052;BME280;53957;47.222;18.670;2022-12-07T04:24:35;100100.25;;;0.39;100.00
67052;BME280;53957;47.222;18.670;2022-12-07T04:27:37;100093.97;;;0.22;100.00
67052;BME280;53957;47.222;18.670;2022-12-07T04:30:40;100094.75;;;0.22;100.00
67052;BME280;53957;47.222;18.670;2022-12-07T04:33:43;100087.50;;;0.24;100.00
67052;BME280;53957;47.222;18.670;2022-12-07T04:36:46;100098.56;;;0.26;100.00
67052;BME280;53957;47.222;18.670;2022-12-07T04:39:49;100094.06;;;0.34;100.00
67052;BME280;53957;47.222;18.670;2022-12-07T04:42:52;100099.31;;;0.34;100.00
67052;BME280;53957;47.222;18.670;2022-12-07T04:45:55;100094.00;;;0.40;100.00
67052;BME280;53957;47.222;18.670;2022-12-07T04:48:58;100098.59;;;0.45;100.00
67052;BME280;53957;47.222;18.670;2022-12-07T04:52:01;100105.81;;;0.50;100.00
67052;BME280;53957;47.222;18.670;2022-12-07T04:55:04;100086.62;;;0.49;100.00
67052;BME280;53957;47.222;18.670;2022-12-07T04:58:07;100091.87;;;0.49;100.00
67052;BME280;53957;47.222;18.670;2022-12-07T05:01:10;100100.47;;;0.56;100.00
67052;BME280;53957;47.222;18.670;2022-12-07T05:04:12;100110.75;;;0.76;100.00
67052;BME280;53957;47.222;18.670;2022-12-07T05:07:15;100102.22;;;0.81;100.00
67052;BME280;53957;47.222;18.670;2022-12-07T05:10:18;100101.13;;;0.70;100.00
67052;BME280;53957;47.222;18.670;2022-12-07T05:13:21;100098.50;;;0.70;100.00
67052;BME280;53957;47.222;18.670;2022-12-07T05:16:24;100096.69;;;0.71;100.00
67052;BME280;53957;47.222;18.670;2022-12-07T05:19:27;100105.00;;;0.68;100.00
67052;BME280;53957;47.222;18.670;2022-12-07T05:22:29;100105.13;;;0.73;100.00
67052;BME280;53957;47.222;18.670;2022-12-07T05:25:32;100106.94;;;0.91;100.00
67052;BME280;53957;47.222;18.670;2022-12-07T05:28:35;100121.19;;;0.83;100.00
67052;BME280;53957;47.222;18.670;2022-12-07T05:31:38;100116.38;;;0.80;100.00
67052;BME280;53957;47.222;18.670;2022-12-07T05:34:41;100127.31;;;0.77;100.00
67052;BME280;53957;47.222;18.670;2022-12-07T05:37:44;100125.09;;;0.92;100.00
67052;BME280;53957;47.222;18.670;2022-12-07T05:40:47;100124.09;;;0.93;100.00
67052;BME280;53957;47.222;18.670;2022-12-07T05:43:50;100132.94;;;0.80;100.00
67052;BME280;53957;47.222;18.670;2022-12-07T05:46:53;100126.22;;;0.66;100.00
67052;BME280;53957;47.222;18.670;2022-12-07T05:49:56;100128.06;;;0.66;100.00
67052;BME280;53957;47.222;18.670;2022-12-07T05:52:59;100132.84;;;0.69;100.00
67052;BME280;53957;47.222;18.670;2022-12-07T05:56:02;100140.38;;;0.84;100.00
67052;BME280;53957;47.222;18.670;2022-12-07T05:59:05;100136.63;;;0.73;100.00
67052;BME280;53957;47.222;18.670;2022-12-07T06:02:27;100129.88;;;0.65;100.00
67052;BME280;53957;47.222;18.670;2022-12-07T06:05:30;100129.44;;;0.68;100.00
67052;BME280;53957;47.222;18.670;2022-12-07T06:08:33;100117.69;;;0.71;100.00
67052;BME280;53957;47.222;18.670;2022-12-07T06:11:36;100125.81;;;0.69;100.00
67052;BME280;53957;47.222;18.670;2022-12-07T06:15:01;100125.81;;;0.69;100.00
67052;BME280;53957;47.222;18.670;2022-12-07T06:18:10;100129.06;;;0.64;100.00
67052;BME280;53957;47.222;18.670;2022-12-07T06:21:54;100122.94;;;0.71;100.00
67052;BME280;53957;47.222;18.670;2022-12-07T06:24:57;100128.34;;;0.76;100.00
67052;BME280;53957;47.222;18.670;2022-12-07T06:28:11;100129.50;;;0.80;100.00
67052;BME280;53957;47.222;18.670;2022-12-07T06:31:14;100121.75;;;0.85;100.00
67052;BME280;53957;47.222;18.670;2022-12-07T06:34:28;100132.44;;;0.90;100.00
67052;BME280;53957;47.222;18.670;2022-12-07T06:38:36;100132.19;;;0.92;100.00
67052;BME280;53957;47.222;18.670;2022-12-07T06:41:52;100130.94;;;0.94;100.00
67052;BME280;53957;47.222;18.670;2022-12-07T06:44:55;100126.72;;;0.93;100.00
67052;BME280;53957;47.222;18.670;2022-12-07T06:47:57;100133.13;;;0.98;100.00
67052;BME280;53957;47.222;18.670;2022-12-07T06:51:01;100127.31;;;0.95;100.00
67052;BME280;53957;47.222;18.670;2022-12-07T06:54:04;100132.97;;;0.92;100.00
67052;BME280;53957;47.222;18.670;2022-12-07T06:57:07;100135.19;;;0.95;100.00
67052;BME280;53957;47.222;18.670;2022-12-07T07:00:10;100131.22;;;1.05;100.00
67052;BME280;53957;47.222;18.670;2022-12-07T07:03:22;100138.31;;;1.04;100.00
67052;BME280;53957;47.222;18.670;2022-12-07T07:06:25;100136.94;;;1.02;100.00
67052;BME280;53957;47.222;18.670;2022-12-07T07:09:28;100135.69;;;1.04;100.00
67052;BME280;53957;47.222;18.670;2022-12-07T07:12:30;100138.66;;;1.08;100.00
67052;BME280;53957;47.222;18.670;2022-12-07T07:15:34;100144.34;;;1.05;100.00
67052;BME280;53957;47.222;18.670;2022-12-07T07:18:37;100148.72;;;1.11;100.00
67052;BME280;53957;47.222;18.670;2022-12-07T07:21:40;100145.66;;;1.14;100.00
67052;BME280;53957;47.222;18.670;2022-12-07T07:24:43;100150.25;;;1.19;100.00
67052;BME280;53957;47.222;18.670;2022-12-07T07:27:46;100149.03;;;1.21;100.00
67052;BME280;53957;47.222;18.670;2022-12-07T07:30:48;100141.97;;;1.34;100.00
67052;BME280;53957;47.222;18.670;2022-12-07T07:33:52;100144.16;;;1.37;100.00
67052;BME280;53957;47.222;18.670;2022-12-07T07:36:55;100140.00;;;1.29;100.00
67052;BME280;53957;47.222;18.670;2022-12-07T07:39:58;100146.72;;;1.43;100.00
67052;BME280;53957;47.222;18.670;2022-12-07T07:43:01;100148.56;;;1.55;100.00
67052;BME280;53957;47.222;18.670;2022-12-07T07:46:04;100147.97;;;1.53;100.00
67052;BME280;53957;47.222;18.670;2022-12-07T07:49:09;100153.00;;;1.54;100.00
67052;BME280;53957;47.222;18.670;2022-12-07T07:52:12;100148.72;;;1.72;100.00
67052;BME280;53957;47.222;18.670;2022-12-07T07:55:16;100151.00;;;1.80;100.00
67052;BME280;53957;47.222;18.670;2022-12-07T07:58:20;100155.44;;;1.68;100.00
67052;BME280;53957;47.222;18.670;2022-12-07T08:01:23;100149.75;;;1.71;100.00
67052;BME280;53957;47.222;18.670;2022-12-07T08:04:26;100158.22;;;1.73;100.00
67052;BME280;53957;47.222;18.670;2022-12-07T08:07:29;100153.69;;;1.92;100.00
67052;BME280;53957;47.222;18.670;2022-12-07T08:10:32;100159.97;;;1.91;100.00
67052;BME280;53957;47.222;18.670;2022-12-07T08:13:37;100158.94;;;1.92;100.00
67052;BME280;53957;47.222;18.670;2022-12-07T08:16:40;100167.84;;;1.91;100.00
67052;BME280;53957;47.222;18.670;2022-12-07T08:19:42;100172.69;;;1.94;100.00
67052;BME280;53957;47.222;18.670;2022-12-07T08:22:45;100165.34;;;1.96;100.00
67052;BME280;53957;47.222;18.670;2022-12-07T08:25:48;100165.25;;;2.15;100.00
67052;BME280;53957;47.222;18.670;2022-12-07T08:28:52;100175.06;;;1.96;100.00
67052;BME280;53957;47.222;18.670;2022-12-07T08:32:02;100165.50;;;2.01;100.00
67052;BME280;53957;47.222;18.670;2022-12-07T08:35:11;100174.88;;;2.09;100.00
67052;BME280;53957;47.222;18.670;2022-12-07T08:56:53;100171.56;;;2.37;100.00
67052;BME280;53957;47.222;18.670;2022-12-07T09:00:03;100175.44;;;2.47;100.00
67052;BME280;53957;47.222;18.670;2022-12-07T09:03:06;100177.28;;;2.46;100.00
67052;BME280;53957;47.222;18.670;2022-12-07T09:06:10;100175.81;;;2.38;100.00
67052;BME280;53957;47.222;18.670;2022-12-07T09:09:13;100172.25;;;2.56;100.00
67052;BME280;53957;47.222;18.670;2022-12-07T09:12:23;100178.44;;;2.62;100.00
67052;BME280;53957;47.222;18.670;2022-12-07T09:15:27;100176.47;;;2.69;100.00
67052;BME280;53957;47.222;18.670;2022-12-07T09:18:31;100163.50;;;2.92;100.00
67052;BME280;53957;47.222;18.670;2022-12-07T09:21:35;100168.97;;;3.02;100.00
67052;BME280;53957;47.222;18.670;2022-12-07T09:24:42;100167.56;;;3.11;100.00
67052;BME280;53957;47.222;18.670;2022-12-07T09:27:46;100168.94;;;3.14;100.00
67052;BME280;53957;47.222;18.670;2022-12-07T09:30:49;100172.00;;;3.22;100.00
67052;BME280;53957;47.222;18.670;2022-12-07T09:34:12;100168.25;;;3.47;100.00
67052;BME280;53957;47.222;18.670;2022-12-07T09:37:15;100167.13;;;3.60;100.00
67052;BME280;53957;47.222;18.670;2022-12-07T09:40:20;100174.78;;;3.45;100.00
67052;BME280;53957;47.222;18.670;2022-12-07T09:43:25;100170.19;;;3.52;100.00
67052;BME280;53957;47.222;18.670;2022-12-07T09:49:35;100167.25;;;3.82;100.00
67052;BME280;53957;47.222;18.670;2022-12-07T09:52:38;100159.66;;;4.03;100.00
67052;BME280;53957;47.222;18.670;2022-12-07T09:55:42;100155.41;;;4.36;100.00
67052;BME280;53957;47.222;18.670;2022-12-07T09:58:46;100156.44;;;4.35;100.00
67052;BME280;53957;47.222;18.670;2022-12-07T10:01:50;100157.56;;;4.39;100.00
67052;BME280;53957;47.222;18.670;2022-12-07T10:04:53;100155.47;;;4.41;100.00
67052;BME280;53957;47.222;18.670;2022-12-07T10:07:56;100150.09;;;4.75;100.00
67052;BME280;53957;47.222;18.670;2022-12-07T10:11:02;100148.75;;;4.95;100.00
67052;BME280;53957;47.222;18.670;2022-12-07T10:14:13;100148.28;;;4.76;100.00
67052;BME280;53957;47.222;18.670;2022-12-07T10:17:31;100139.06;;;4.78;100.00
67052;BME280;53957;47.222;18.670;2022-12-07T10:20:35;100137.06;;;4.46;100.00
67052;BME280;53957;47.222;18.670;2022-12-07T10:23:40;100135.22;;;4.47;100.00
67052;BME280;53957;47.222;18.670;2022-12-07T10:29:52;100136.03;;;4.92;100.00
67052;BME280;53957;47.222;18.670;2022-12-07T10:32:55;100131.75;;;4.86;100.00
67052;BME280;53957;47.222;18.670;2022-12-07T10:35:59;100128.53;;;4.83;100.00
67052;BME280;53957;47.222;18.670;2022-12-07T10:39:13;100125.06;;;5.00;100.00
67052;BME280;53957;47.222;18.670;2022-12-07T10:42:34;100121.03;;;4.97;100.00
67052;BME280;53957;47.222;18.670;2022-12-07T10:56:42;100128.34;;;5.12;100.00
67052;BME280;53957;47.222;18.670;2022-12-07T11:00:16;100126.25;;;5.42;100.00
67052;BME280;53957;47.222;18.670;2022-12-07T11:03:25;100112.88;;;5.54;100.00
67052;BME280;53957;47.222;18.670;2022-12-07T11:07:08;100121.97;;;5.63;100.00
67052;BME280;53957;47.222;18.670;2022-12-07T11:24:17;100105.69;;;5.49;100.00
67052;BME280;53957;47.222;18.670;2022-12-07T11:27:39;100102.59;;;5.57;100.00
67052;BME280;53957;47.222;18.670;2022-12-07T11:34:02;100102.38;;;5.64;100.00
67052;BME280;53957;47.222;18.670;2022-12-07T11:37:13;100097.59;;;5.61;100.00
67052;BME280;53957;47.222;18.670;2022-12-07T11:40:28;100104.34;;;5.79;100.00
67052;BME280;53957;47.222;18.670;2022-12-07T11:43:34;100097.47;;;5.78;100.00
67052;BME280;53957;47.222;18.670;2022-12-07T11:46:54;100098.78;;;6.13;100.00
67052;BME280;53957;47.222;18.670;2022-12-07T11:53:18;100102.25;;;5.81;100.00
67052;BME280;53957;47.222;18.670;2022-12-07T11:56:26;100101.13;;;6.04;100.00
67052;BME280;53957;47.222;18.670;2022-12-07T11:59:36;100102.69;;;6.00;100.00
67052;BME280;53957;47.222;18.670;2022-12-07T12:03:01;100102.19;;;5.71;100.00
67052;BME280;53957;47.222;18.670;2022-12-07T12:06:05;100099.53;;;6.03;100.00
67052;BME280;53957;47.222;18.670;2022-12-07T12:09:26;100096.66;;;5.77;100.00
67052;BME280;53957;47.222;18.670;2022-12-07T12:12:55;100088.09;;;5.65;100.00
67052;BME280;53957;47.222;18.670;2022-12-07T12:26:15;100067.06;;;6.23;100.00
67052;BME280;53957;47.222;18.670;2022-12-07T12:29:27;100070.03;;;6.32;100.00
67052;BME280;53957;47.222;18.670;2022-12-07T12:32:42;100057.19;;;6.13;100.00
67052;BME280;53957;47.222;18.670;2022-12-07T12:39:18;100049.38;;;5.91;100.00
67052;BME280;53957;47.222;18.670;2022-12-07T12:43:26;100051.03;;;5.97;100.00
67052;BME280;53957;47.222;18.670;2022-12-07T12:49:40;100045.94;;;5.91;100.00
67052;BME280;53957;47.222;18.670;2022-12-07T12:53:00;100039.16;;;6.05;100.00
67052;BME280;53957;47.222;18.670;2022-12-07T12:56:22;100049.69;;;5.57;100.00
67052;BME280;53957;47.222;18.670;2022-12-07T13:02:58;100038.88;;;5.64;100.00
67052;BME280;53957;47.222;18.670;2022-12-07T13:09:28;100050.66;;;5.46;100.00
67052;BME280;53957;47.222;18.670;2022-12-07T13:12:32;100051.44;;;5.46;100.00
67052;BME280;53957;47.222;18.670;2022-12-07T13:18:52;100059.03;;;5.38;100.00
67052;BME280;53957;47.222;18.670;2022-12-07T13:21:54;100053.91;;;5.26;100.00
67052;BME280;53957;47.222;18.670;2022-12-07T13:25:03;100062.19;;;5.35;100.00
67052;BME280;53957;47.222;18.670;2022-12-07T13:28:09;100063.28;;;5.39;100.00
67052;BME280;53957;47.222;18.670;2022-12-07T13:31:30;100060.81;;;5.32;100.00
67052;BME280;53957;47.222;18.670;2022-12-07T13:34:38;100066.34;;;5.25;100.00
67052;BME280;53957;47.222;18.670;2022-12-07T13:37:42;100071.84;;;5.19;100.00
67052;BME280;53957;47.222;18.670;2022-12-07T13:41:00;100063.84;;;5.13;100.00
67052;BME280;53957;47.222;18.670;2022-12-07T13:44:27;100062.75;;;5.09;100.00
67052;BME280;53957;47.222;18.670;2022-12-07T13:47:58;100059.62;;;5.12;100.00
67052;BME280;53957;47.222;18.670;2022-12-07T13:51:03;100062.78;;;5.14;100.00
67052;BME280;53957;47.222;18.670;2022-12-07T13:54:12;100069.19;;;5.19;100.00
67052;BME280;53957;47.222;18.670;2022-12-07T13:57:17;100065.59;;;5.03;100.00
67052;BME280;53957;47.222;18.670;2022-12-07T14:01:06;100067.63;;;4.95;100.00
67052;BME280;53957;47.222;18.670;2022-12-07T14:04:34;100076.09;;;4.97;100.00
67052;BME280;53957;47.222;18.670;2022-12-07T14:07:56;100078.44;;;4.94;100.00
67052;BME280;53957;47.222;18.670;2022-12-07T14:11:00;100079.56;;;4.98;100.00
67052;BME280;53957;47.222;18.670;2022-12-07T14:14:04;100089.72;;;4.84;100.00
67052;BME280;53957;47.222;18.670;2022-12-07T14:17:17;100082.25;;;5.03;100.00
67052;BME280;53957;47.222;18.670;2022-12-07T14:20:32;100087.84;;;5.07;99.19
67052;BME280;53957;47.222;18.670;2022-12-07T14:23:38;100086.38;;;4.94;100.00
67052;BME280;53957;47.222;18.670;2022-12-07T14:26:41;100090.41;;;4.74;100.00
67052;BME280;53957;47.222;18.670;2022-12-07T14:29:44;100090.31;;;4.69;100.00
67052;BME280;53957;47.222;18.670;2022-12-07T14:32:52;100085.97;;;4.80;100.00
67052;BME280;53957;47.222;18.670;2022-12-07T14:35:56;100087.75;;;4.74;100.00
67052;BME280;53957;47.222;18.670;2022-12-07T14:39:00;100090.50;;;4.62;100.00
67052;BME280;53957;47.222;18.670;2022-12-07T14:42:04;100089.78;;;4.67;100.00
67052;BME280;53957;47.222;18.670;2022-12-07T14:45:13;100096.34;;;4.64;100.00
67052;BME280;53957;47.222;18.670;2022-12-07T14:48:17;100091.06;;;4.64;100.00
67052;BME280;53957;47.222;18.670;2022-12-07T14:51:40;100102.47;;;4.48;100.00
67052;BME280;53957;47.222;18.670;2022-12-07T14:55:19;100099.03;;;4.47;100.00
67052;BME280;53957;47.222;18.670;2022-12-07T14:58:22;100101.63;;;4.42;100.00
67052;BME280;53957;47.222;18.670;2022-12-07T15:01:25;100108.50;;;4.43;100.00
67052;BME280;53957;47.222;18.670;2022-12-07T15:04:28;100106.41;;;4.45;100.00
67052;BME280;53957;47.222;18.670;2022-12-07T15:07:31;100102.16;;;4.44;100.00
67052;BME280;53957;47.222;18.670;2022-12-07T15:10:34;100102.16;;;4.44;100.00
67052;BME280;53957;47.222;18.670;2022-12-07T15:13:41;100106.28;;;4.35;100.00
67052;BME280;53957;47.222;18.670;2022-12-07T15:17:02;100113.78;;;4.43;100.00
67052;BME280;53957;47.222;18.670;2022-12-07T15:20:13;100115.37;;;4.44;100.00
67052;BME280;53957;47.222;18.670;2022-12-07T15:23:16;100121.03;;;4.31;100.00
67052;BME280;53957;47.222;18.670;2022-12-07T15:26:19;100121.75;;;4.26;100.00
67052;BME280;53957;47.222;18.670;2022-12-07T15:29:22;100116.88;;;4.18;100.00
67052;BME280;53957;47.222;18.670;2022-12-07T15:32:28;100115.81;;;4.19;100.00
67052;BME280;53957;47.222;18.670;2022-12-07T15:35:31;100112.63;;;4.17;100.00
67052;BME280;53957;47.222;18.670;2022-12-07T15:38:35;100120.16;;;4.08;100.00
67052;BME280;53957;47.222;18.670;2022-12-07T15:41:58;100114.41;;;4.11;100.00
67052;BME280;53957;47.222;18.670;2022-12-07T15:45:02;100116.16;;;4.06;100.00
67052;BME280;53957;47.222;18.670;2022-12-07T15:48:08;100112.22;;;4.08;100.00
67052;BME280;53957;47.222;18.670;2022-12-07T15:51:31;100122.91;;;3.96;100.00
67052;BME280;53957;47.222;18.670;2022-12-07T15:54:34;100131.03;;;3.95;100.00
67052;BME280;53957;47.222;18.670;2022-12-07T15:57:38;100121.44;;;3.89;100.00
67052;BME280;53957;47.222;18.670;2022-12-07T16:00:40;100123.03;;;3.90;100.00
67052;BME280;53957;47.222;18.670;2022-12-07T16:03:44;100131.34;;;3.81;100.00
67052;BME280;53957;47.222;18.670;2022-12-07T16:06:47;100131.28;;;3.76;100.00
67052;BME280;53957;47.222;18.670;2022-12-07T16:09:50;100125.59;;;3.67;100.00
67052;BME280;53957;47.222;18.670;2022-12-07T16:12:53;100130.47;;;3.59;100.00
67052;BME280;53957;47.222;18.670;2022-12-07T16:15:56;100133.47;;;3.50;100.00
67052;BME280;53957;47.222;18.670;2022-12-07T16:18:59;100129.22;;;3.49;100.00
67052;BME280;53957;47.222;18.670;2022-12-07T16:22:03;100131.78;;;3.44;100.00
67052;BME280;53957;47.222;18.670;2022-12-07T16:25:07;100128.72;;;3.35;100.00
67052;BME280;53957;47.222;18.670;2022-12-07T16:28:10;100128.87;;;3.29;100.00
67052;BME280;53957;47.222;18.670;2022-12-07T16:31:15;100142.06;;;3.29;100.00
67052;BME280;53957;47.222;18.670;2022-12-07T16:34:18;100134.44;;;3.15;100.00
67052;BME280;53957;47.222;18.670;2022-12-07T16:37:21;100139.22;;;3.18;100.00
67052;BME280;53957;47.222;18.670;2022-12-07T16:40:24;100135.37;;;3.09;100.00
67052;BME280;53957;47.222;18.670;2022-12-07T16:43:26;100146.19;;;2.96;100.00
67052;BME280;53957;47.222;18.670;2022-12-07T16:46:32;100140.16;;;2.83;100.00
67052;BME280;53957;47.222;18.670;2022-12-07T16:49:35;100144.28;;;2.67;100.00
67052;BME280;53957;47.222;18.670;2022-12-07T16:52:38;100139.63;;;2.57;100.00
67052;BME280;53957;47.222;18.670;2022-12-07T16:55:43;100141.13;;;2.41;100.00
67052;BME280;53957;47.222;18.670;2022-12-07T16:58:47;100146.59;;;2.28;100.00
67052;BME280;53957;47.222;18.670;2022-12-07T17:01:51;100139.88;;;2.20;100.00
67052;BME280;53957;47.222;18.670;2022-12-07T17:04:54;100145.00;;;2.03;100.00
67052;BME280;53957;47.222;18.670;2022-12-07T17:07:57;100142.22;;;1.86;100.00
67052;BME280;53957;47.222;18.670;2022-12-07T17:11:00;100150.56;;;1.83;100.00
67052;BME280;53957;47.222;18.670;2022-12-07T17:14:05;100152.63;;;1.69;100.00
67052;BME280;53957;47.222;18.670;2022-12-07T17:17:27;100150.97;;;1.56;100.00
67052;BME280;53957;47.222;18.670;2022-12-07T17:20:31;100147.25;;;1.34;100.00
67052;BME280;53957;47.222;18.670;2022-12-07T17:23:50;100142.94;;;1.21;100.00
67052;BME280;53957;47.222;18.670;2022-12-07T17:26:53;100141.00;;;1.16;100.00
67052;BME280;53957;47.222;18.670;2022-12-07T17:29:57;100147.66;;;1.31;100.00
67052;BME280;53957;47.222;18.670;2022-12-07T17:32:59;100155.72;;;1.17;100.00
67052;BME280;53957;47.222;18.670;2022-12-07T17:36:21;100155.81;;;1.10;100.00
67052;BME280;53957;47.222;18.670;2022-12-07T17:39:24;100156.34;;;1.01;100.00
67052;BME280;53957;47.222;18.670;2022-12-07T17:42:27;100151.38;;;0.92;100.00
67052;BME280;53957;47.222;18.670;2022-12-07T17:45:39;100156.06;;;0.90;100.00
67052;BME280;53957;47.222;18.670;2022-12-07T17:48:42;100147.94;;;1.10;100.00
67052;BME280;53957;47.222;18.670;2022-12-07T17:51:45;100152.59;;;1.08;100.00